As Olivia — DYQC — position and weather

sailwx.info

Track history (hours):
 
Tides and Currents Weather Stations Pressure Air Temp Water Temp Dewpoint Dewpoint Depression Visibility Wind Speed Wind Dir Waves Ship Positions

As Olivia

Last reported at 2016-Apr-08 03:33 UTC. Time now 2016-May-02 08:15 UTC.
Position N 31°17' E 032°20'.
Warning: this ship's position is 24 days out of date.

Length 146 m; draft 9.7 m.

Type: Tanker. MMSI: 548767000.

Date/timePositionNaut miles runAvg speedWind from/ knotsBaromVisibWave heightAir tempDewpointWater temp
2016-Apr-08 03:33N 31°17' E 032°20'4 1.3
2016-Apr-08 00:22N 31°22' E 032°19'0 0.0
2016-Apr-07 22:31N 31°22' E 032°19'0 0.0
2016-Apr-07 21:28N 31°22' E 032°19'0 0.0
2016-Apr-07 20:28N 31°22' E 032°19'0 0.0
2016-Apr-07 19:29N 31°21' E 032°19'0 0.0
2016-Apr-07 18:20N 31°21' E 032°19'0 0.6
2016-Apr-07 17:33N 31°22' E 032°20'3310.8
2016-Apr-07 14:31N 31°47' E 031°55'1913.5
2016-Apr-07 13:05N 31°54' E 031°34'10413.7
2016-Apr-07 05:30N 32°24' E 029°36'1413.8
2016-Apr-07 04:27N 32°29' E 029°20'47113.8
2016-Apr-05 18:23N 34°51' E 020°21'1213.9
2016-Apr-05 17:33N 34°55' E 020°08'19413.6
2016-Apr-05 03:16N 35°53' E 016°21'1013.4
2016-Apr-05 02:33N 35°56' E 016°10'1413.5
2016-Apr-05 01:32N 36°00' E 015°54'1413.6
2016-Apr-05 00:33N 36°04' E 015°38'1413.9
2016-Apr-04 23:33N 36°09' E 015°22'1413.8
2016-Apr-04 22:33N 36°13' E 015°05'1413.6
2016-Apr-04 21:33N 36°17' E 014°49'1413.8
2016-Apr-04 20:33N 36°21' E 014°33'1413.8
2016-Apr-04 19:33N 36°25' E 014°17'1413.7
2016-Apr-04 18:33N 36°29' E 014°01'1413.6
2016-Apr-04 17:33N 36°34' E 013°44'1413.7
2016-Apr-04 16:33N 36°37' E 013°28'1414.4
2016-Apr-04 15:33N 36°42' E 013°11'1414.2
2016-Apr-04 14:33N 36°46' E 012°54'1414.1
2016-Apr-04 13:33N 36°51' E 012°37'1413.8
2016-Apr-04 12:33N 36°55' E 012°21'1413.7
2016-Apr-04 11:33N 36°59' E 012°05'1413.8
2016-Apr-04 10:33N 37°05' E 011°49'1413.7
2016-Apr-04 09:33N 37°12' E 011°34'1513.8
2016-Apr-04 08:28N 37°20' E 011°18'1513.3
2016-Apr-04 07:21N 37°27' E 011°02'1113.6
2016-Apr-04 06:32N 37°32' E 010°50'1713.9
2016-Apr-04 05:17N 37°41' E 010°31'9713.6
2016-Apr-03 22:09N 37°49' E 008°28'67113.8
2016-Apr-01 21:33N 35°59' W 005°20'  
Track history (hours):
 
Tides and Currents Weather Stations Pressure Air Temp Water Temp Dewpoint Dewpoint Depression Visibility Wind Speed Wind Dir Waves Ship Positions

As Olivia

Last reported at 2016-Apr-08 03:33 UTC. Time now 2016-May-02 08:15 UTC.
Position N 31°17' E 032°20'.
Warning: this ship's position is 24 days out of date.

Length 146 m; draft 9.7 m.

Type: Tanker. MMSI: 548767000.

Date/timePositionNaut miles runAvg speedWind from/ knotsBaromVisibWave heightAir tempDewpointWater temp
2016-Apr-08 03:33N 31°17' E 032°20'4 1.3
2016-Apr-08 00:22N 31°22' E 032°19'0 0.0
2016-Apr-07 22:31N 31°22' E 032°19'0 0.0
2016-Apr-07 21:28N 31°22' E 032°19'0 0.0
2016-Apr-07 20:28N 31°22' E 032°19'0 0.0
2016-Apr-07 19:29N 31°21' E 032°19'0 0.0
2016-Apr-07 18:20N 31°21' E 032°19'0 0.6
2016-Apr-07 17:33N 31°22' E 032°20'3310.8
2016-Apr-07 14:31N 31°47' E 031°55'1913.5
2016-Apr-07 13:05N 31°54' E 031°34'10413.7
2016-Apr-07 05:30N 32°24' E 029°36'1413.8
2016-Apr-07 04:27N 32°29' E 029°20'47113.8
2016-Apr-05 18:23N 34°51' E 020°21'1213.9
2016-Apr-05 17:33N 34°55' E 020°08'19413.6
2016-Apr-05 03:16N 35°53' E 016°21'1013.4
2016-Apr-05 02:33N 35°56' E 016°10'1413.5
2016-Apr-05 01:32N 36°00' E 015°54'1413.6
2016-Apr-05 00:33N 36°04' E 015°38'1413.9
2016-Apr-04 23:33N 36°09' E 015°22'1413.8
2016-Apr-04 22:33N 36°13' E 015°05'1413.6
2016-Apr-04 21:33N 36°17' E 014°49'1413.8
2016-Apr-04 20:33N 36°21' E 014°33'1413.8
2016-Apr-04 19:33N 36°25' E 014°17'1413.7
2016-Apr-04 18:33N 36°29' E 014°01'1413.6
2016-Apr-04 17:33N 36°34' E 013°44'1413.7
2016-Apr-04 16:33N 36°37' E 013°28'1414.4
2016-Apr-04 15:33N 36°42' E 013°11'1414.2
2016-Apr-04 14:33N 36°46' E 012°54'1414.1
2016-Apr-04 13:33N 36°51' E 012°37'1413.8
2016-Apr-04 12:33N 36°55' E 012°21'1413.7
2016-Apr-04 11:33N 36°59' E 012°05'1413.8
2016-Apr-04 10:33N 37°05' E 011°49'1413.7
2016-Apr-04 09:33N 37°12' E 011°34'1513.8
2016-Apr-04 08:28N 37°20' E 011°18'1513.3
2016-Apr-04 07:21N 37°27' E 011°02'1113.6
2016-Apr-04 06:32N 37°32' E 010°50'1713.9
2016-Apr-04 05:17N 37°41' E 010°31'9713.6
2016-Apr-03 22:09N 37°49' E 008°28'67113.8
2016-Apr-01 21:33N 35°59' W 005°20'  

Dump ship's entire track history